Time;durP1;ratioP1;P1;durP2;ratioP2;P2;SDS_P1;SDS_P2;PMS_P1;PMS_P2;Temp;Humidity;BMP_temperature;BMP_pressure;BME280_temperature;BME280_humidity;BME280_pressure;Samples;Min_cycle;Max_cycle;Signal;HPM_P1;HPM_P2
2022/12/18 00:02:05;;;;;;;64.03;28.77;;;;;;;0.57;87.55;101771.44;5071878;28;20615;-70
2022/12/18 00:04:30;;;;;;;68.80;28.33;;;;;;;0.58;87.25;101770.56;5071505;28;20531;-70
2022/12/18 00:06:56;;;;;;;68.38;27.83;;;;;;;0.45;87.77;101767.31;5071559;28;20625;-70
2022/12/18 00:09:22;;;;;;;63.58;27.10;;;;;;;0.50;87.11;101791.84;5071546;28;20027;-69
2022/12/18 00:11:47;;;;;;;66.70;28.83;;;;;;;0.51;87.87;101805.94;5070072;28;20056;-69
2022/12/18 00:14:13;;;;;;;69.78;30.23;;;;;;;0.48;88.21;101813.91;5070099;28;20485;-69
2022/12/18 00:16:42;;;;;;;66.07;28.65;;;;;;;0.47;89.38;101823.59;5070054;28;20028;-69
2022/12/18 00:19:10;;;;;;;69.32;29.27;;;;;;;0.50;88.74;101818.25;5070349;28;20028;-70
2022/12/18 00:21:35;;;;;;;72.63;29.55;;;;;;;0.50;88.83;101810.34;5071501;28;20456;-70
2022/12/18 00:24:01;;;;;;;66.13;28.02;;;;;;;0.56;88.01;101817.22;5070969;28;20036;-70
2022/12/18 00:26:31;;;;;;;64.20;27.88;;;;;;;0.41;88.78;101810.53;5071210;28;20162;-70
2022/12/18 00:29:13;;;;;;;68.15;29.55;;;;;;;0.53;89.51;101834.00;5069866;28;20119;-69
2022/12/18 00:31:39;;;;;;;64.80;28.35;;;;;;;0.58;88.57;101829.47;5071200;28;20077;-70
2022/12/18 00:34:05;;;;;;;70.68;30.38;;;;;;;0.55;87.31;101826.91;5070803;28;20125;-70
2022/12/18 00:36:33;;;;;;;70.45;29.63;;;;;;;0.62;87.33;101833.81;5069557;28;20071;-70
2022/12/18 00:39:00;;;;;;;64.70;27.55;;;;;;;0.61;87.76;101839.97;5070922;28;20404;-70
2022/12/18 00:44:13;;;;;;;65.00;27.80;;;;;;;0.67;87.81;101860.09;5070898;28;20132;-70
2022/12/18 00:46:39;;;;;;;71.38;30.60;;;;;;;0.49;87.92;101842.03;5070640;28;20032;-70
2022/12/18 00:49:05;;;;;;;65.78;28.38;;;;;;;0.48;88.73;101850.88;5070694;28;20024;-70
2022/12/18 00:51:30;;;;;;;62.42;27.92;;;;;;;0.57;89.18;101874.38;5069364;28;20664;-70
2022/12/18 00:53:56;;;;;;;73.65;29.42;;;;;;;0.53;88.26;101855.13;5070712;28;20036;-71
2022/12/18 00:56:22;;;;;;;72.30;30.67;;;;;;;0.61;88.78;101884.84;5070430;28;20107;-70
2022/12/18 00:58:48;;;;;;;73.70;28.95;;;;;;;0.57;89.21;101872.63;5070471;28;20024;-70
2022/12/18 01:01:13;;;;;;;67.43;29.73;;;;;;;0.63;89.42;101885.69;5070575;28;20098;-71
2022/12/18 01:03:39;;;;;;;79.20;32.25;;;;;;;0.72;88.90;101888.13;5070215;28;20040;-70
2022/12/18 01:06:09;;;;;;;77.95;33.58;;;;;;;0.69;89.00;101890.84;5068971;28;20081;-70
2022/12/18 01:08:35;;;;;;;72.38;30.25;;;;;;;0.73;88.84;101897.78;5070201;28;20055;-70
2022/12/18 01:11:11;;;;;;;65.05;29.88;;;;;;;0.74;89.43;101901.31;5070240;28;20032;-70
2022/12/18 01:13:37;;;;;;;68.93;29.10;;;;;;;0.80;89.19;101902.00;5070087;28;20040;-70
2022/12/18 01:16:03;;;;;;;68.40;30.08;;;;;;;0.75;88.47;101890.72;5070012;28;20477;-70
2022/12/18 01:18:34;;;;;;;70.88;32.10;;;;;;;0.75;88.04;101892.47;5070338;28;20032;-70
2022/12/18 01:21:00;;;;;;;76.18;30.42;;;;;;;0.86;88.66;101912.44;5068628;28;20031;-70
2022/12/18 01:23:28;;;;;;;70.78;30.58;;;;;;;0.74;88.68;101896.88;5070002;28;20016;-70
2022/12/18 01:25:54;;;;;;;66.88;29.67;;;;;;;0.72;88.73;101900.47;5069907;28;20028;-70
2022/12/18 01:28:19;;;;;;;65.90;28.85;;;;;;;0.63;89.89;101893.63;5069226;28;20396;-70
2022/12/18 01:30:45;;;;;;;66.32;27.92;;;;;;;0.73;90.08;101921.53;5069900;28;20020;-70
2022/12/18 01:33:10;;;;;;;69.25;30.80;;;;;;;0.68;90.48;101902.28;5070044;28;20036;-70
2022/12/18 01:35:41;;;;;;;71.15;30.52;;;;;;;0.81;90.11;101914.31;5070191;28;20024;-70
2022/12/18 01:38:06;;;;;;;72.15;30.17;;;;;;;0.82;89.29;101904.63;5070249;28;20392;-70
2022/12/18 01:40:32;;;;;;;68.82;28.45;;;;;;;0.80;89.65;101912.56;5069889;28;20044;-71
2022/12/18 01:42:57;;;;;;;71.95;30.67;;;;;;;0.71;90.04;101907.50;5068462;28;20037;-70
2022/12/18 01:45:31;;;;;;;69.97;31.35;;;;;;;0.91;88.03;101910.59;5069641;28;20025;-70
2022/12/18 01:48:00;;;;;;;65.82;28.73;;;;;;;0.85;88.46;101917.75;5070037;28;20025;-73
2022/12/18 01:50:33;;;;;;;71.85;30.85;;;;;;;0.87;89.45;101930.03;5070206;28;20036;-74
2022/12/18 01:53:07;;;;;;;72.13;30.65;;;;;;;0.85;89.55;101926.56;5070067;28;20028;-74
2022/12/18 01:55:53;;;;;;;;;;;;;;;0.92;89.20;101930.78;5069128;28;20035;-74
2022/12/18 01:58:23;;;;;;;75.18;29.55;;;;;;;0.88;88.74;101905.38;5069401;28;19909;-74
2022/12/18 02:00:48;;;;;;;71.00;30.90;;;;;;;0.95;88.25;101933.38;5068690;28;20049;-74
2022/12/18 02:03:14;;;;;;;64.30;28.67;;;;;;;0.64;89.49;101895.34;5069784;28;20031;-74
2022/12/18 02:06:07;;;;;;;73.28;30.92;;;;;;;0.83;90.32;101931.00;5070424;28;20036;-74
2022/12/18 02:08:45;;;;;;;79.00;32.13;;;;;;;0.71;90.28;101925.97;5068839;28;20099;-74
2022/12/18 02:11:33;;;;;;;74.35;30.00;;;;;;;0.90;90.44;101958.16;5069683;28;20032;-74
2022/12/18 02:14:30;;;;;;;67.65;28.63;;;;;;;0.75;90.93;101924.16;5063163;28;20033;-74
2022/12/18 02:17:18;;;;;;;71.78;29.90;;;;;;;0.87;90.78;101956.44;5068539;28;20037;-74
2022/12/18 02:19:53;;;;;;;67.00;28.80;;;;;;;0.85;91.25;101958.25;5056206;28;20044;-74
2022/12/18 02:22:27;;;;;;;80.40;32.20;;;;;;;0.95;90.18;101959.78;5070332;28;20107;-74
2022/12/18 02:25:23;;;;;;;65.38;29.55;;;;;;;0.92;90.92;101964.25;5069132;28;20044;-74
2022/12/18 02:27:50;;;;;;;65.50;28.52;;;;;;;0.92;91.55;101954.56;5070086;28;20020;-74
2022/12/18 02:30:17;;;;;;;68.90;31.67;;;;;;;0.96;90.49;101964.16;5069806;28;20044;-74
2022/12/18 02:32:50;;;;;;;74.03;32.63;;;;;;;0.96;90.75;101969.44;5069099;28;20032;-74
2022/12/18 02:35:21;;;;;;;66.67;29.77;;;;;;;0.92;91.30;101975.69;5067951;28;20028;-74
2022/12/18 02:37:47;;;;;;;64.80;28.58;;;;;;;0.92;91.32;101970.41;5069716;28;20063;-74
2022/12/18 02:40:15;;;;;;;68.85;29.23;;;;;;;0.88;91.88;101971.38;5072089;28;20083;-74
2022/12/18 02:42:41;;;;;;;68.15;30.17;;;;;;;0.80;91.96;101954.84;5072833;28;20051;-74
2022/12/18 02:45:07;;;;;;;70.15;29.88;;;;;;;0.81;92.48;101966.28;5071036;28;20548;-74
2022/12/18 02:47:37;;;;;;;71.75;31.85;;;;;;;0.90;91.94;101982.78;5071427;28;20115;-74
2022/12/18 02:50:08;;;;;;;70.82;29.77;;;;;;;0.85;91.85;101971.47;5072863;28;20036;-74
2022/12/18 02:52:58;;;;;;;68.05;28.88;;;;;;;0.91;92.05;101984.53;5072741;28;20028;-74
2022/12/18 02:55:28;;;;;;;70.88;28.45;;;;;;;0.83;92.16;101975.88;5070811;28;20016;-69
2022/12/18 02:57:58;;;;;;;70.78;30.55;;;;;;;0.70;92.19;101957.69;5071618;28;20124;-70
2022/12/18 03:00:51;;;;;;;65.68;29.17;;;;;;;0.91;92.06;101988.94;5070117;28;20028;-70
2022/12/18 03:03:26;;;;;;;70.13;29.73;;;;;;;0.75;92.28;101962.00;5072731;28;20028;-70
2022/12/18 03:06:05;;;;;;;70.57;30.23;;;;;;;0.92;92.19;101995.94;5072834;28;20354;-70
2022/12/18 03:08:37;;;;;;;62.60;27.92;;;;;;;0.86;92.28;101969.66;5072585;28;20020;-70
2022/12/18 03:11:06;;;;;;;67.53;28.83;;;;;;;0.93;91.92;101992.44;5071396;28;20034;-70
2022/12/18 03:13:49;;;;;;;67.85;30.45;;;;;;;0.91;91.97;102004.78;5072584;28;20107;-70
2022/12/18 03:16:22;;;;;;;68.45;30.15;;;;;;;0.97;92.22;102013.44;5072453;28;20040;-70
2022/12/18 03:18:53;;;;;;;69.53;31.05;;;;;;;0.92;92.14;102010.03;5072367;28;20496;-70
2022/12/18 03:21:27;;;;;;;66.65;30.05;;;;;;;0.91;92.66;102018.00;5072284;28;20488;-70
2022/12/18 03:23:54;;;;;;;72.30;30.90;;;;;;;0.81;92.19;101998.81;5070969;28;20058;-70
2022/12/18 03:26:24;;;;;;;71.45;29.98;;;;;;;0.88;91.98;102021.56;5071985;28;20068;-69
2022/12/18 03:28:53;;;;;;;71.18;28.35;;;;;;;0.87;92.43;102024.25;5071985;28;20035;-69
2022/12/18 03:31:22;;;;;;;74.07;32.05;;;;;;;0.80;93.39;102022.63;5072222;28;20028;-69
2022/12/18 03:33:53;;;;;;;70.13;30.70;;;;;;;0.80;93.17;102031.41;5070498;28;20047;-70
2022/12/18 03:36:18;;;;;;;69.85;31.50;;;;;;;0.73;93.41;102026.28;5070609;28;20127;-70
2022/12/18 03:38:44;;;;;;;69.32;29.48;;;;;;;0.81;93.73;102046.34;5071907;28;20635;-70
2022/12/18 03:41:21;;;;;;;73.80;33.47;;;;;;;0.87;93.13;102042.72;5072102;28;20074;-70
2022/12/18 03:44:05;;;;;;;70.30;31.95;;;;;;;0.79;91.79;102029.69;5070396;28;20032;-70
2022/12/18 03:46:38;;;;;;;;;;;;;;;0.98;90.80;102038.97;5072205;28;20044;-70
2022/12/18 03:49:22;;;;;;;70.95;30.35;;;;;;;0.83;90.60;102019.91;5071849;28;19908;-70
2022/12/18 03:51:49;;;;;;;79.40;31.53;;;;;;;0.95;90.75;102054.88;5071032;28;20032;-70
2022/12/18 03:54:17;;;;;;;74.72;31.27;;;;;;;0.69;91.45;102033.41;5071227;28;20035;-70
2022/12/18 03:56:47;;;;;;;69.72;29.17;;;;;;;0.68;92.41;102044.00;5071060;28;20603;-70
2022/12/18 03:59:15;;;;;;;72.32;30.95;;;;;;;0.77;93.25;102062.31;5071771;28;20083;-70
2022/12/18 04:01:45;;;;;;;64.88;29.17;;;;;;;0.72;93.70;102062.41;5071454;28;20568;-70
2022/12/18 04:04:12;;;;;;;66.38;30.08;;;;;;;0.70;93.71;102061.53;5071835;28;20029;-70
2022/12/18 04:06:40;;;;;;;71.80;30.33;;;;;;;0.65;94.07;102067.81;5071464;28;20021;-70
2022/12/18 04:09:06;;;;;;;73.97;30.08;;;;;;;0.51;93.78;102039.03;5070007;28;20109;-69
2022/12/18 04:11:32;;;;;;;71.85;31.48;;;;;;;0.50;94.07;102044.34;5069871;28;20469;-69
2022/12/18 04:13:58;;;;;;;75.57;30.65;;;;;;;0.60;94.11;102065.25;5071111;28;20032;-70
2022/12/18 04:16:25;;;;;;;80.70;33.45;;;;;;;0.56;93.90;102060.06;5069508;28;20039;-70
2022/12/18 04:18:51;;;;;;;71.32;31.13;;;;;;;0.50;93.75;102055.78;5071169;28;20546;-70
2022/12/18 04:21:16;;;;;;;74.07;32.65;;;;;;;0.68;93.00;102087.09;5071284;28;20032;-70
2022/12/18 04:23:42;;;;;;;70.72;30.80;;;;;;;0.62;93.25;102079.31;5069387;28;20031;-70
2022/12/18 04:26:07;;;;;;;70.00;31.63;;;;;;;0.56;93.35;102082.06;5071130;28;20123;-70
2022/12/18 04:28:33;;;;;;;73.47;30.75;;;;;;;0.59;93.40;102089.94;5070884;28;20025;-70
2022/12/18 04:30:58;;;;;;;69.03;30.73;;;;;;;0.52;93.04;102095.34;5070850;28;20021;-70
2022/12/18 04:33:24;;;;;;;74.60;29.90;;;;;;;0.52;93.29;102098.88;5069493;28;20036;-70
2022/12/18 04:35:50;;;;;;;79.38;33.80;;;;;;;0.56;93.55;102103.19;5070842;28;20078;-69
2022/12/18 04:38:15;;;;;;;78.82;32.72;;;;;;;0.51;93.07;102110.31;5070678;28;20074;-69
2022/12/18 04:40:41;;;;;;;76.55;31.63;;;;;;;0.39;93.36;102113.19;5069805;28;20429;-70
2022/12/18 04:43:06;;;;;;;75.10;32.83;;;;;;;0.33;93.55;102086.91;5069390;28;20043;-70
2022/12/18 04:45:33;;;;;;;68.85;30.05;;;;;;;0.37;94.28;102117.63;5070721;28;20438;-69
2022/12/18 04:47:59;;;;;;;74.82;33.28;;;;;;;0.32;94.39;102118.59;5070696;28;20476;-70
2022/12/18 04:50:24;;;;;;;70.60;31.15;;;;;;;0.25;95.00;102116.97;5070483;28;20024;-71
2022/12/18 04:52:50;;;;;;;76.60;33.53;;;;;;;0.21;94.79;102110.84;5070385;28;20028;-70
2022/12/18 04:55:15;;;;;;;74.70;32.90;;;;;;;0.18;95.17;102121.47;5069119;28;20033;-70
2022/12/18 04:57:41;;;;;;;79.05;34.08;;;;;;;0.26;94.12;102122.22;5069042;28;20161;-70
2022/12/18 05:00:07;;;;;;;74.00;32.58;;;;;;;0.14;94.40;102119.78;5070304;28;20059;-70
2022/12/18 05:02:32;;;;;;;80.88;31.65;;;;;;;0.02;94.33;102117.34;5069367;28;20044;-69
2022/12/18 05:04:58;;;;;;;72.55;31.33;;;;;;;0.15;94.40;102144.38;5070287;28;20033;-70
2022/12/18 05:07:23;;;;;;;71.80;29.75;;;;;;;-0.14;94.57;102106.16;5070056;28;20373;-70
2022/12/18 05:09:49;;;;;;;74.18;32.05;;;;;;;0.20;93.76;102148.69;5070094;28;20520;-70
2022/12/18 05:12:14;;;;;;;65.80;29.67;;;;;;;0.10;94.17;102152.38;5070220;28;20400;-70
2022/12/18 05:14:40;;;;;;;70.80;30.23;;;;;;;-0.04;94.43;102146.44;5070317;28;20028;-70
2022/12/18 05:17:05;;;;;;;71.80;31.20;;;;;;;-0.25;95.14;102133.59;5068665;28;20489;-70
2022/12/18 05:19:31;;;;;;;72.20;29.67;;;;;;;-0.16;95.25;102159.81;5069586;28;20047;-70
2022/12/18 05:21:56;;;;;;;72.30;30.52;;;;;;;-0.25;96.06;102157.31;5068557;28;20024;-70
2022/12/18 05:24:21;;;;;;;73.60;30.90;;;;;;;-0.35;95.67;102150.44;5069683;28;20036;-70
2022/12/18 05:26:47;;;;;;;77.57;31.35;;;;;;;-0.20;95.55;102172.16;5068391;28;20028;-70
2022/12/18 05:29:13;;;;;;;74.28;29.65;;;;;;;-0.38;95.57;102167.13;5068851;28;20024;-70
2022/12/18 05:31:39;;;;;;;69.53;28.67;;;;;;;-0.66;95.98;102138.56;5068600;28;20024;-70
2022/12/18 05:34:04;;;;;;;74.53;31.02;;;;;;;-0.51;96.05;102181.38;5069747;28;20036;-70
2022/12/18 05:36:30;;;;;;;68.70;29.88;;;;;;;-0.71;96.59;102156.19;5069862;28;20090;-70
2022/12/18 05:38:56;;;;;;;73.63;30.25;;;;;;;-0.72;97.01;102181.66;5069325;28;20048;-70
2022/12/18 05:41:21;;;;;;;74.88;31.00;;;;;;;-0.70;97.33;102198.34;5068297;28;20413;-70
2022/12/18 05:43:47;;;;;;;73.55;30.13;;;;;;;-0.74;97.60;102203.66;5069774;28;20035;-70
2022/12/18 05:46:15;;;;;;;69.10;30.33;;;;;;;-0.93;97.74;102183.69;5069851;28;20503;-70
2022/12/18 05:48:41;;;;;;;68.38;30.42;;;;;;;-0.85;97.84;102203.78;5069842;28;20064;-70
2022/12/18 05:51:09;;;;;;;76.57;31.63;;;;;;;-0.98;97.73;102177.56;5068348;28;20040;-70
2022/12/18 05:53:36;;;;;;;83.97;31.45;;;;;;;-0.86;98.20;102203.78;5069802;28;20037;-70
2022/12/18 05:56:06;;;;;;;66.78;28.00;;;;;;;-0.91;98.46;102197.69;5069789;28;20491;-70
2022/12/18 05:58:33;;;;;;;75.85;31.73;;;;;;;-0.96;98.80;102207.41;5069159;28;20074;-70
2022/12/18 06:01:26;;;;;;;79.60;31.00;;;;;;;-1.04;98.64;102204.84;5069097;28;20473;-70
2022/12/18 06:03:51;;;;;;;71.80;30.48;;;;;;;-1.04;98.38;102210.13;5068487;28;20070;-70
2022/12/18 06:06:25;;;;;;;74.00;30.02;;;;;;;-1.06;98.63;102217.16;5069568;28;20033;-74
2022/12/18 06:08:51;;;;;;;82.50;32.58;;;;;;;-1.01;98.29;102215.34;5067250;28;20115;-74
2022/12/18 06:11:19;;;;;;;84.32;32.58;;;;;;;-0.93;98.26;102224.03;5070113;28;20525;-73
2022/12/18 06:13:46;;;;;;;76.75;31.10;;;;;;;-0.99;98.48;102220.59;5072042;28;20036;-74
2022/12/18 06:16:12;;;;;;;74.82;30.20;;;;;;;-1.14;98.53;102223.38;5074417;28;20024;-73
2022/12/18 06:18:38;;;;;;;75.68;32.30;;;;;;;-1.12;98.75;102234.78;5072257;28;20500;-74
2022/12/18 06:21:03;;;;;;;78.65;30.88;;;;;;;-1.26;98.71;102220.88;5072085;28;20029;-74
2022/12/18 06:23:28;;;;;;;72.97;30.38;;;;;;;-1.25;99.02;102220.88;5073924;28;20036;-74
2022/12/18 06:25:54;;;;;;;83.63;33.47;;;;;;;-1.21;99.11;102234.88;5073635;28;20035;-74
2022/12/18 06:28:19;;;;;;;73.80;31.17;;;;;;;-1.24;98.94;102237.53;5068429;28;20032;-74
2022/12/18 06:30:47;;;;;;;78.40;32.03;;;;;;;-1.35;99.06;102226.22;5070569;28;20504;-73
2022/12/18 06:33:13;;;;;;;80.18;32.15;;;;;;;-1.34;99.30;102238.50;5071344;28;20036;-74
2022/12/18 06:35:39;;;;;;;79.80;31.85;;;;;;;-1.46;99.25;102242.09;5071914;28;20410;-74
2022/12/18 06:38:04;;;;;;;80.00;33.13;;;;;;;-1.49;99.28;102239.50;5071923;28;20504;-74
2022/12/18 06:40:29;;;;;;;71.43;30.83;;;;;;;-1.45;99.57;102248.25;5071772;28;20433;-74
2022/12/18 06:42:55;;;;;;;78.20;31.45;;;;;;;-1.38;99.62;102269.25;5072008;28;20031;-74
2022/12/18 06:45:21;;;;;;;75.72;32.50;;;;;;;-1.40;99.93;102276.25;5071902;28;20052;-74
2022/12/18 06:47:46;;;;;;;78.32;31.90;;;;;;;-1.46;99.73;102280.69;5070600;28;20048;-74
2022/12/18 06:50:13;;;;;;;74.97;30.25;;;;;;;-1.61;100.00;102260.63;5071405;28;20044;-74
2022/12/18 06:52:40;;;;;;;81.10;33.28;;;;;;;-1.44;100.00;102294.72;5071842;28;20024;-74
2022/12/18 06:55:09;;;;;;;78.63;30.85;;;;;;;-1.48;100.00;102295.63;5070279;28;20056;-76
2022/12/18 06:57:35;;;;;;;76.40;32.05;;;;;;;-1.74;99.84;102250.22;5071700;28;20101;-73
2022/12/18 07:00:00;;;;;;;81.18;32.88;;;;;;;-1.50;99.62;102293.00;5069810;28;20075;-73
2022/12/18 07:02:26;;;;;;;79.65;34.70;;;;;;;-1.63;99.97;102277.31;5071709;28;20468;-74
2022/12/18 07:04:51;;;;;;;81.93;33.22;;;;;;;-1.47;100.00;102302.63;5069833;28;20054;-73
2022/12/18 07:07:17;;;;;;;81.80;34.60;;;;;;;-1.48;100.00;102301.75;5071103;28;20025;-73
2022/12/18 07:09:43;;;;;;;88.45;35.55;;;;;;;-1.60;100.00;102288.69;5069303;28;20085;-74
2022/12/18 07:12:08;;;;;;;83.07;35.55;;;;;;;-1.58;100.00;102294.81;5069607;28;20405;-75
2022/12/18 07:14:34;;;;;;;85.68;35.83;;;;;;;-1.62;100.00;102293.09;5071340;28;20029;-73
2022/12/18 07:16:59;;;;;;;89.70;37.95;;;;;;;-1.54;100.00;102303.56;5070945;28;20033;-70
2022/12/18 07:19:24;;;;;;;100.57;42.55;;;;;;;-1.52;100.00;102315.81;5068923;28;20159;-70
2022/12/18 07:21:50;;;;;;;112.22;44.60;;;;;;;-1.42;100.00;102328.03;5070552;28;20040;-70
2022/12/18 07:24:16;;;;;;;116.82;48.67;;;;;;;-1.39;100.00;102325.38;5068886;28;20097;-70
2022/12/18 07:26:41;;;;;;;117.72;46.15;;;;;;;-1.31;100.00;102331.47;5068461;28;20039;-70
2022/12/18 07:29:07;;;;;;;98.88;40.75;;;;;;;-1.26;100.00;102334.06;5070311;28;20903;-71
2022/12/18 07:31:33;;;;;;;99.15;43.70;;;;;;;-1.26;100.00;102334.06;5069211;28;20402;-71
2022/12/18 07:33:58;;;;;;;102.47;42.92;;;;;;;-1.24;100.00;102343.69;5068733;28;20064;-70
2022/12/18 07:36:24;;;;;;;92.45;39.20;;;;;;;-1.28;100.00;102335.81;5069007;28;20494;-71
2022/12/18 07:38:52;;;;;;;99.75;41.53;;;;;;;-1.08;100.00;102358.47;5070293;28;20013;-71
2022/12/18 07:41:19;;;;;;;100.28;41.20;;;;;;;-1.02;100.00;102354.91;5070370;28;20028;-70
2022/12/18 07:43:45;;;;;;;101.15;42.60;;;;;;;-0.95;99.51;102365.41;5069165;28;20029;-70
2022/12/18 07:46:15;;;;;;;96.40;40.97;;;;;;;-1.09;100.00;102348.84;5068859;28;20055;-70
2022/12/18 07:48:42;;;;;;;98.35;42.28;;;;;;;-0.94;100.00;102375.03;5068804;28;20036;-71
2022/12/18 07:51:08;;;;;;;92.32;39.70;;;;;;;-0.96;100.00;102365.41;5068931;28;20489;-70
2022/12/18 07:53:35;;;;;;;97.55;41.45;;;;;;;-0.93;100.00;102375.91;5070242;28;20071;-70
2022/12/18 07:56:06;;;;;;;93.30;41.20;;;;;;;-0.78;100.00;102388.94;5068961;28;20414;-70
2022/12/18 07:58:32;;;;;;;93.85;40.13;;;;;;;-0.84;100.00;102375.84;5068265;28;20033;-70
2022/12/18 08:01:09;;;;;;;88.57;38.25;;;;;;;-0.81;100.00;102378.47;5070199;28;20496;-70
2022/12/18 08:03:35;;;;;;;92.90;37.55;;;;;;;-0.74;100.00;102380.16;5069788;28;20142;-70
2022/12/18 08:06:02;;;;;;;89.20;39.20;;;;;;;-0.81;99.64;102358.25;5068306;28;20056;-70
2022/12/18 08:08:29;;;;;;;85.35;37.47;;;;;;;-0.61;99.01;102389.69;5067821;28;20378;-73
2022/12/18 08:10:55;;;;;;;86.68;38.47;;;;;;;-0.43;97.10;102397.41;5069435;28;20112;-73
2022/12/18 08:13:20;;;;;;;85.78;35.95;;;;;;;-0.41;96.90;102407.06;5068183;28;20123;-73
2022/12/18 08:15:46;;;;;;;80.65;33.88;;;;;;;-0.68;97.29;102354.59;5069827;28;20035;-74
2022/12/18 08:18:11;;;;;;;80.78;36.25;;;;;;;-0.36;97.45;102406.97;5069518;28;20028;-75
2022/12/18 08:20:36;;;;;;;83.85;36.40;;;;;;;-0.45;96.04;102371.06;5067971;28;20047;-73
2022/12/18 08:23:02;;;;;;;89.80;38.15;;;;;;;0.04;93.26;102418.88;5069264;28;20020;-73
2022/12/18 08:25:27;;;;;;;84.85;36.15;;;;;;;0.15;92.31;102422.25;5069530;28;20027;-72
2022/12/18 08:27:53;;;;;;;85.50;38.63;;;;;;;0.05;92.75;102423.25;5067865;28;20101;-74
2022/12/18 08:30:19;;;;;;;81.43;35.58;;;;;;;0.09;93.54;102432.00;5067663;28;20032;-73
2022/12/18 08:32:44;;;;;;;84.20;37.40;;;;;;;0.12;92.86;102434.63;5069211;28;20541;-73
2022/12/18 08:35:11;;;;;;;74.47;33.47;;;;;;;0.09;93.49;102432.88;5066967;28;20044;-70
2022/12/18 08:37:37;;;;;;;88.25;35.38;;;;;;;-0.04;94.26;102404.88;5068207;28;20028;-70
2022/12/18 08:40:03;;;;;;;79.40;35.97;;;;;;;0.15;94.15;102440.72;5068683;28;20047;-70
2022/12/18 08:45:12;;;;;;;83.05;35.60;;;;;;;0.26;94.02;102453.78;5069457;28;20031;-71
2022/12/18 08:47:38;;;;;;;77.10;35.75;;;;;;;0.12;93.85;102422.28;5068243;28;20040;-70
2022/12/18 08:50:03;;;;;;;82.93;36.85;;;;;;;0.14;93.96;102409.06;5068396;28;20047;-71
2022/12/18 08:52:31;;;;;;;87.60;37.05;;;;;;;0.36;94.10;102443.13;5069249;28;20075;-71
2022/12/18 08:54:56;;;;;;;80.65;34.85;;;;;;;0.44;93.57;102446.53;5067800;28;20035;-71
2022/12/18 08:57:22;;;;;;;83.15;35.75;;;;;;;0.49;93.56;102444.72;5069514;28;20664;-70
2022/12/18 08:59:48;;;;;;;76.88;35.40;;;;;;;0.33;92.71;102402.69;5067851;28;20164;-70
2022/12/18 09:02:13;;;;;;;81.70;35.85;;;;;;;0.58;92.36;102441.06;5068862;28;20028;-70
2022/12/18 09:04:39;;;;;;;73.82;34.55;;;;;;;0.58;92.47;102438.44;5068802;28;20485;-70
2022/12/18 09:07:05;;;;;;;80.72;35.70;;;;;;;0.50;91.79;102420.06;5068303;28;20035;-70
2022/12/18 09:09:30;;;;;;;74.15;35.10;;;;;;;0.60;91.77;102428.72;5069149;28;20435;-70
2022/12/18 09:11:55;;;;;;;76.55;35.88;;;;;;;0.80;91.33;102448.66;5067641;28;20032;-70
2022/12/18 09:14:21;;;;;;;78.47;34.92;;;;;;;0.78;91.43;102436.38;5068211;28;20108;-71
2022/12/18 09:16:46;;;;;;;80.38;37.10;;;;;;;0.86;90.59;102438.03;5067557;28;20508;-70
2022/12/18 09:19:13;;;;;;;75.53;35.20;;;;;;;1.07;89.92;102456.22;5068742;28;20384;-70
2022/12/18 09:21:38;;;;;;;76.43;34.67;;;;;;;0.95;90.67;102419.41;5066994;28;20052;-70
2022/12/18 09:24:05;;;;;;;77.13;35.53;;;;;;;1.12;90.52;102440.25;5067457;28;20576;-70
2022/12/18 09:26:30;;;;;;;77.30;34.20;;;;;;;1.15;90.03;102435.81;5068672;28;20358;-71
2022/12/18 09:28:56;;;;;;;74.63;36.05;;;;;;;1.20;90.02;102430.47;5067777;28;20036;-71
2022/12/18 09:31:23;;;;;;;81.03;36.20;;;;;;;1.32;89.55;102448.78;5067978;28;20031;-72
2022/12/18 09:33:48;;;;;;;80.20;36.17;;;;;;;1.35;90.47;102441.66;5068866;28;20159;-71
2022/12/18 09:36:17;;;;;;;83.28;36.00;;;;;;;1.37;90.02;102437.22;5072918;28;20114;-71
2022/12/18 09:38:42;;;;;;;81.35;36.22;;;;;;;1.50;90.13;102454.63;5087832;28;20042;-70
2022/12/18 09:41:32;;;;;;;73.57;34.55;;;;;;;1.52;90.05;102452.81;5067573;28;20412;-70
2022/12/18 09:44:17;;;;;;;69.18;32.95;;;;;;;1.69;89.31;102452.53;5067325;28;20021;-71
2022/12/18 09:46:59;;;;;;;68.45;32.58;;;;;;;1.62;89.39;102446.47;5069609;28;20036;-71
2022/12/18 09:49:29;;;;;;;67.60;32.50;;;;;;;1.76;89.69;102460.34;5069061;28;20389;-71
2022/12/18 09:52:01;;;;;;;68.30;31.50;;;;;;;1.75;89.41;102440.09;5069696;28;20052;-71
2022/12/18 09:54:43;;;;;;;67.60;31.10;;;;;;;1.83;89.58;102446.09;5069672;28;20388;-71
2022/12/18 09:57:18;;;;;;;65.82;31.40;;;;;;;1.70;89.86;102412.84;5067744;28;20070;-71
2022/12/18 09:59:50;;;;;;;73.20;32.08;;;;;;;1.89;89.62;102432.75;5069255;28;20047;-71
2022/12/18 10:02:24;;;;;;;63.45;31.00;;;;;;;1.89;89.71;102418.66;5068392;28;20024;-71
2022/12/18 10:05:16;;;;;;;78.05;33.03;;;;;;;2.10;89.68;102442.94;5069817;28;20385;-71
2022/12/18 10:08:04;;;;;;;74.80;31.25;;;;;;;2.16;89.11;102441.97;5069587;28;20060;-70
2022/12/18 10:11:16;;;;;;;59.40;28.98;;;;;;;2.13;89.20;102418.19;5069159;28;20016;-71
2022/12/18 10:13:55;;;;;;;58.78;27.58;;;;;;;2.18;89.75;102419.84;5043936;28;20129;-71
2022/12/18 10:16:36;;;;;;;48.20;23.52;;;;;;;2.35;89.44;102430.06;5069104;28;20036;-70
2022/12/18 10:19:20;;;;;;;51.00;26.52;;;;;;;2.34;88.72;102402.75;5067494;28;20024;-70
2022/12/18 10:22:13;;;;;;;56.15;28.05;;;;;;;2.48;88.81;102428.91;5069059;28;20405;-71
2022/12/18 10:24:50;;;;;;;64.18;30.77;;;;;;;2.49;88.17;102433.31;5068922;28;20032;-70
2022/12/18 10:27:21;;;;;;;69.57;30.67;;;;;;;2.43;87.85;102410.47;5068570;28;20025;-70
2022/12/18 10:29:47;;;;;;;67.03;32.65;;;;;;;2.31;86.48;102381.63;5068802;28;20493;-71
2022/12/18 10:32:30;;;;;;;67.07;32.13;;;;;;;2.54;85.81;102402.31;5068612;28;20047;-71
2022/12/18 10:34:57;;;;;;;72.75;34.30;;;;;;;2.69;85.65;102417.00;5069018;28;20656;-71
2022/12/18 10:37:28;;;;;;;69.00;31.98;;;;;;;2.57;85.32;102385.50;5069010;28;20028;-71
2022/12/18 10:40:13;;;;;;;74.07;34.30;;;;;;;2.59;85.47;102386.31;5067313;28;20106;-74
2022/12/18 10:42:40;;;;;;;69.72;32.83;;;;;;;2.77;85.62;102405.31;5069887;28;20442;-74
2022/12/18 10:45:14;;;;;;;64.18;31.98;;;;;;;2.84;84.42;102400.75;5070705;28;20086;-74
2022/12/18 10:47:50;;;;;;;65.20;31.50;;;;;;;2.75;83.11;102375.34;5070352;28;20108;-74
2022/12/18 10:50:26;;;;;;;66.50;32.42;;;;;;;2.79;83.49;102386.72;5070779;28;20052;-74
2022/12/18 10:53:00;;;;;;;62.55;30.77;;;;;;;3.04;80.00;102410.00;5070654;28;20402;-74
2022/12/18 10:55:39;;;;;;;65.53;31.42;;;;;;;3.00;80.56;102410.94;5069842;28;20031;-74
2022/12/18 10:58:25;;;;;;;65.28;31.73;;;;;;;3.01;81.34;102418.00;5068266;28;20048;-74
2022/12/18 11:01:06;;;;;;;62.85;30.60;;;;;;;3.19;79.04;102428.16;5073030;28;20056;-75
2022/12/18 11:03:37;;;;;;;65.28;32.30;;;;;;;3.17;79.02;102422.03;5073309;28;20052;-74
2022/12/18 11:06:09;;;;;;;64.43;32.70;;;;;;;3.18;79.30;102425.53;5073117;28;20043;-72
2022/12/18 11:08:35;;;;;;;68.68;32.20;;;;;;;3.14;79.68;102418.59;5072030;28;20048;-72
2022/12/18 11:11:01;;;;;;;58.90;28.50;;;;;;;3.21;79.89;102431.66;5071947;28;20126;-72
2022/12/18 11:13:29;;;;;;;60.63;29.73;;;;;;;3.27;78.66;102420.91;5073422;28;20060;-72
2022/12/18 11:15:54;;;;;;;56.08;27.00;;;;;;;3.24;77.92;102398.88;5073520;28;20020;-73
2022/12/18 11:18:34;;;;;;;59.83;28.33;;;;;;;3.35;78.52;102426.88;5072054;28;20393;-72
2022/12/18 11:21:09;;;;;;;56.20;27.00;;;;;;;3.42;77.68;102424.97;5073024;28;20105;-72
2022/12/18 11:23:37;;;;;;;55.58;26.80;;;;;;;3.42;77.94;102433.78;5073281;28;20028;-74
2022/12/18 11:26:05;;;;;;;53.65;27.20;;;;;;;3.52;77.01;102435.28;5071657;28;20073;-74
2022/12/18 11:28:41;;;;;;;54.15;26.38;;;;;;;3.49;76.34;102432.75;5072852;28;20119;-75
2022/12/18 11:31:28;;;;;;;57.67;26.35;;;;;;;3.48;77.47;102435.44;5071544;28;20081;-74